Time;durP1;ratioP1;P1;durP2;ratioP2;P2;SDS_P1;SDS_P2;PMS_P1;PMS_P2;Temp;Humidity;BMP_temperature;BMP_pressure;BME280_temperature;BME280_humidity;BME280_pressure;Samples;Min_cycle;Max_cycle;Signal;HPM_P1;HPM_P2
2023/01/12 00:01:31;;;;;;;7.00;1.77;;;8.70;99.90;;;;;;5038125;28;20205;-60
2023/01/12 00:03:58;;;;;;;7.50;1.60;;;8.70;99.90;;;;;;5037153;28;20664;-60
2023/01/12 00:06:25;;;;;;;3.07;1.77;;;8.70;99.90;;;;;;5019274;28;20203;-62
2023/01/12 00:08:52;;;;;;;7.10;2.07;;;8.80;99.90;;;;;;5038112;28;20716;-62
2023/01/12 00:11:20;;;;;;;9.47;2.90;;;8.80;99.90;;;;;;5039017;28;20216;-62
2023/01/12 00:13:47;;;;;;;4.27;2.23;;;8.90;99.90;;;;;;5039542;28;20239;-62
2023/01/12 00:16:33;;;;;;;10.17;2.63;;;8.90;99.90;;;;;;5037409;28;20240;-62
2023/01/12 00:19:01;;;;;;;4.10;2.13;;;8.90;99.90;;;;;;5021378;28;20650;-63
2023/01/12 00:21:30;;;;;;;9.67;2.50;;;9.00;99.90;;;;;;5038347;28;20188;-62
2023/01/12 00:23:57;;;;;;;10.27;2.47;;;9.00;99.90;;;;;;5039393;28;20192;-63
2023/01/12 00:26:24;;;;;;;11.20;2.53;;;9.00;99.90;;;;;;5020882;28;20207;-63
2023/01/12 00:28:50;;;;;;;13.40;2.30;;;9.00;99.90;;;;;;5018662;28;20324;-61
2023/01/12 00:31:17;;;;;;;8.90;2.03;;;9.00;99.90;;;;;;5020577;28;20561;-60
2023/01/12 00:33:46;;;;;;;12.83;3.17;;;9.00;99.90;;;;;;5038182;28;20291;-60
2023/01/12 00:36:16;;;;;;;2.53;1.43;;;9.00;99.90;;;;;;5038225;28;20293;-61
2023/01/12 00:38:43;;;;;;;8.53;2.50;;;9.00;99.90;;;;;;5037602;28;20687;-61
2023/01/12 00:46:44;;;;;;;8.63;2.43;;;8.90;99.90;;;;;;5037811;28;20203;-61
2023/01/12 00:49:11;;;;;;;10.07;2.00;;;8.90;99.90;;;;;;5038044;28;20209;-61
2023/01/12 00:51:37;;;;;;;7.40;2.20;;;8.90;99.90;;;;;;5021502;28;20292;-61
2023/01/12 00:54:07;;;;;;;6.63;2.00;;;8.90;99.90;;;;;;5037836;28;21028;-61
2023/01/12 00:56:35;;;;;;;7.90;2.23;;;8.90;99.90;;;;;;5038094;28;20612;-61
2023/01/12 00:59:02;;;;;;;5.17;1.73;;;8.90;99.90;;;;;;5037586;28;20294;-62
2023/01/12 01:01:29;;;;;;;12.90;2.57;;;9.00;99.90;;;;;;5037302;28;20204;-61
2023/01/12 01:03:56;;;;;;;8.37;2.13;;;9.00;99.90;;;;;;5039027;28;20596;-61
2023/01/12 01:06:23;;;;;;;5.37;2.70;;;8.90;99.90;;;;;;5038002;28;20215;-61
2023/01/12 01:08:50;;;;;;;8.33;1.90;;;8.90;99.90;;;;;;5038083;28;20336;-61
2023/01/12 01:11:18;;;;;;;8.57;1.77;;;9.00;99.90;;;;;;5038356;28;20220;-61
2023/01/12 01:13:44;;;;;;;9.40;2.23;;;9.00;99.90;;;;;;5020708;28;20293;-61
2023/01/12 01:16:14;;;;;;;10.23;2.47;;;9.00;99.90;;;;;;5021184;28;20568;-61
2023/01/12 01:18:41;;;;;;;8.10;1.87;;;8.90;99.90;;;;;;5020797;28;20209;-60
2023/01/12 01:21:10;;;;;;;9.43;1.80;;;9.00;99.90;;;;;;5039381;28;20211;-61
2023/01/12 01:23:38;;;;;;;14.03;2.47;;;9.00;99.90;;;;;;5020965;28;20630;-61
2023/01/12 01:26:12;;;;;;;10.57;2.13;;;9.00;99.90;;;;;;5035748;28;20207;-61
2023/01/12 01:28:39;;;;;;;12.17;2.37;;;9.00;99.90;;;;;;5023547;28;20217;-61
2023/01/12 01:31:15;;;;;;;8.70;2.30;;;9.00;99.90;;;;;;5023400;28;20240;-61
2023/01/12 01:33:42;;;;;;;7.93;1.90;;;9.00;99.90;;;;;;5024820;28;20242;-61
2023/01/12 01:36:10;;;;;;;9.23;2.13;;;9.00;99.90;;;;;;5041909;28;20678;-62
2023/01/12 01:38:38;;;;;;;13.17;2.60;;;9.00;99.90;;;;;;5042283;28;20656;-60
2023/01/12 01:41:06;;;;;;;5.57;2.67;;;9.00;99.90;;;;;;5039397;28;20295;-61
2023/01/12 01:43:51;;;;;;;12.53;2.37;;;9.00;99.90;;;;;;5041893;28;20592;-60
2023/01/12 01:46:26;;;;;;;5.10;2.23;;;9.00;99.90;;;;;;5041537;28;20236;-61
2023/01/12 01:48:53;;;;;;;9.27;2.70;;;8.90;99.90;;;;;;5041931;28;20217;-61
2023/01/12 01:51:21;;;;;;;8.87;2.50;;;8.90;99.90;;;;;;5031049;28;20266;-60
2023/01/12 01:53:49;;;;;;;9.97;2.73;;;9.00;99.90;;;;;;5039890;28;20209;-60
2023/01/12 01:56:22;;;;;;;5.77;2.60;;;8.90;99.90;;;;;;5040997;28;20236;-61
2023/01/12 01:59:00;;;;;;;12.13;3.00;;;9.00;99.90;;;;;;5040489;28;20221;-61
2023/01/12 02:01:27;;;;;;;8.17;2.20;;;9.00;99.90;;;;;;5023377;28;20209;-61
2023/01/12 02:03:55;;;;;;;10.50;2.00;;;8.90;99.90;;;;;;5022898;28;20206;-61
2023/01/12 02:06:25;;;;;;;7.10;2.20;;;8.90;99.90;;;;;;5027454;28;20638;-61
2023/01/12 02:08:59;;;;;;;8.13;1.90;;;8.90;99.90;;;;;;5023450;28;20307;-61
2023/01/12 02:17:24;;;;;;;6.57;1.83;;;8.90;99.90;;;;;;5040178;28;20207;-62
2023/01/12 02:19:51;;;;;;;8.97;2.33;;;8.90;99.90;;;;;;5039423;28;20227;-61
2023/01/12 02:22:51;;;;;;;8.47;2.10;;;8.90;99.90;;;;;;5021985;28;20205;-61
2023/01/12 02:26:10;;;;;;;7.33;2.30;;;8.90;99.90;;;;;;5018323;28;20729;-61
2023/01/12 02:28:58;;;;;;;8.23;2.80;;;8.90;99.90;;;;;;5033393;28;20242;-61
2023/01/12 02:31:53;;;;;;;5.60;2.20;;;8.90;99.90;;;;;;5035272;28;20623;-62
2023/01/12 02:34:44;;;;;;;6.53;2.10;;;8.90;99.90;;;;;;5037472;28;20196;-62
2023/01/12 02:37:20;;;;;;;9.40;2.23;;;8.90;99.90;;;;;;5023027;28;20229;-64
2023/01/12 02:39:58;;;;;;;7.87;2.50;;;8.90;99.90;;;;;;5040896;28;20702;-64
2023/01/12 02:42:40;;;;;;;6.40;1.70;;;8.90;99.90;;;;;;5041285;28;20641;-63
2023/01/12 02:45:16;;;;;;;5.60;1.70;;;9.00;99.90;;;;;;5040739;28;20664;-62
2023/01/12 02:47:46;;;;;;;10.87;1.83;;;8.90;99.90;;;;;;5038974;28;20226;-62
2023/01/12 02:50:20;;;;;;;12.40;2.00;;;9.00;99.90;;;;;;5039765;28;20194;-62
2023/01/12 02:52:56;;;;;;;8.50;2.13;;;8.90;99.90;;;;;;5035209;28;20234;-62
2023/01/12 02:55:25;;;;;;;7.50;1.70;;;9.00;99.90;;;;;;5028843;28;20245;-62
2023/01/12 02:57:54;;;;;;;7.00;2.50;;;8.90;99.90;;;;;;5040851;28;20212;-62
2023/01/12 03:00:21;;;;;;;10.73;1.93;;;9.00;99.90;;;;;;5021715;28;20397;-62
2023/01/12 03:02:49;;;;;;;8.50;2.00;;;8.90;99.90;;;;;;5040253;28;20218;-62
2023/01/12 03:05:16;;;;;;;5.73;1.80;;;8.90;99.90;;;;;;5038703;28;20202;-62
2023/01/12 03:07:54;;;;;;;7.83;2.07;;;8.90;99.90;;;;;;5038959;28;20707;-63
2023/01/12 03:11:13;;;;;;;6.90;1.63;;;8.90;99.90;;;;;;5022187;28;20216;-63
2023/01/12 03:13:46;;;;;;;5.50;1.77;;;8.90;99.90;;;;;;4959439;28;20326;-63
2023/01/12 03:16:21;;;;;;;7.40;2.03;;;8.90;99.90;;;;;;4959147;28;20294;-63
2023/01/12 03:18:56;;;;;;;7.77;1.77;;;8.90;99.90;;;;;;4959999;28;20209;-63
2023/01/12 03:21:33;;;;;;;8.90;2.00;;;8.90;99.90;;;;;;4958599;28;20225;-65
2023/01/12 03:24:05;;;;;;;5.13;1.57;;;8.90;99.90;;;;;;4959900;28;20206;-63
2023/01/12 03:26:35;;;;;;;4.07;1.37;;;8.90;99.90;;;;;;4959137;28;20245;-64
2023/01/12 03:29:10;;;;;;;4.43;1.90;;;8.90;99.90;;;;;;4959160;28;20233;-63
2023/01/12 03:31:37;;;;;;;8.33;1.93;;;8.90;99.90;;;;;;4950818;28;20210;-63
2023/01/12 03:34:04;;;;;;;6.67;1.77;;;8.90;99.90;;;;;;4960324;28;20210;-64
2023/01/12 03:36:50;;;;;;;9.50;2.43;;;8.90;99.90;;;;;;4954553;28;20244;-63
2023/01/12 03:39:29;;;;;;;4.57;1.83;;;8.90;99.90;;;;;;4939958;28;21429;-62
2023/01/12 03:42:06;;;;;;;8.23;1.70;;;8.90;99.90;;;;;;4953736;28;20214;-63
2023/01/12 03:44:44;;;;;;;5.17;1.40;;;8.90;99.90;;;;;;4954432;28;20553;-68
2023/01/12 03:47:17;;;;;;;6.23;1.20;;;8.90;99.90;;;;;;4967844;28;20233;-63
2023/01/12 03:49:49;;;;;;;6.63;1.40;;;9.00;99.90;;;;;;4995239;28;20303;-64
2023/01/12 03:52:17;;;;;;;9.27;1.70;;;9.00;99.90;;;;;;4996490;28;20237;-63
2023/01/12 03:54:45;;;;;;;6.30;1.47;;;9.00;99.90;;;;;;4993798;28;20304;-62
2023/01/12 03:57:12;;;;;;;7.73;1.47;;;8.90;99.90;;;;;;4990692;28;20798;-62
2023/01/12 03:59:40;;;;;;;10.77;2.10;;;9.00;99.90;;;;;;4991833;28;20211;-63
2023/01/12 04:02:07;;;;;;;5.17;1.23;;;9.00;99.90;;;;;;4993465;28;20227;-62
2023/01/12 04:04:34;;;;;;;5.80;1.40;;;9.00;99.90;;;;;;4993993;28;20237;-62
2023/01/12 04:07:01;;;;;;;2.50;0.80;;;9.00;99.90;;;;;;4996599;28;20220;-63
2023/01/12 04:09:28;;;;;;;4.30;2.03;;;9.00;99.90;;;;;;5005378;28;20230;-63
2023/01/12 04:12:10;;;;;;;3.43;0.83;;;9.00;99.90;;;;;;4994734;28;20323;-62
2023/01/12 04:14:39;;;;;;;8.00;1.47;;;9.00;99.90;;;;;;4994942;28;20558;-61
2023/01/12 04:17:07;;;;;;;7.77;2.30;;;9.00;99.90;;;;;;4998976;28;20212;-62
2023/01/12 04:19:34;;;;;;;3.87;1.03;;;9.00;99.90;;;;;;4994271;28;20298;-62
2023/01/12 04:24:47;;;;;;;3.47;1.20;;;9.00;99.90;;;;;;4995476;28;20205;-63
2023/01/12 04:27:15;;;;;;;4.17;1.10;;;9.10;99.90;;;;;;4994335;28;20268;-61
2023/01/12 04:29:42;;;;;;;2.60;1.30;;;9.00;99.90;;;;;;4978393;28;20260;-62
2023/01/12 04:32:09;;;;;;;7.57;1.10;;;9.10;99.90;;;;;;4996324;28;20219;-60
2023/01/12 04:34:37;;;;;;;7.13;1.30;;;9.10;99.90;;;;;;4995311;28;20297;-61
2023/01/12 04:37:04;;;;;;;3.83;1.43;;;9.10;99.90;;;;;;4992489;28;20243;-62
2023/01/12 04:39:31;;;;;;;7.73;1.43;;;9.10;99.90;;;;;;4983776;28;20233;-62
2023/01/12 04:41:58;;;;;;;2.87;1.00;;;9.10;99.90;;;;;;4996158;28;20294;-61
2023/01/12 04:44:25;;;;;;;4.77;1.23;;;9.10;99.90;;;;;;4993366;28;20206;-61
2023/01/12 04:46:51;;;;;;;2.10;1.23;;;9.10;99.90;;;;;;4993970;28;20333;-62
2023/01/12 04:49:18;;;;;;;2.20;1.20;;;9.10;99.90;;;;;;5014216;28;20234;-62
2023/01/12 04:51:45;;;;;;;5.80;1.23;;;9.10;99.90;;;;;;5013769;28;20316;-61
2023/01/12 04:54:12;;;;;;;6.80;1.70;;;9.10;99.90;;;;;;5013439;28;20287;-61
2023/01/12 04:56:39;;;;;;;7.10;1.50;;;9.10;99.90;;;;;;5013401;28;20204;-61
2023/01/12 04:59:08;;;;;;;9.17;1.33;;;9.10;99.90;;;;;;5015708;28;20205;-60
2023/01/12 05:01:37;;;;;;;7.83;1.33;;;9.10;99.90;;;;;;5004601;28;20195;-60
2023/01/12 05:04:05;;;;;;;7.37;1.80;;;9.10;99.90;;;;;;5021315;28;20245;-60
2023/01/12 05:06:33;;;;;;;3.47;1.33;;;9.10;99.90;;;;;;5020431;28;20201;-61
2023/01/12 05:11:45;;;;;;;4.53;0.97;;;9.00;99.90;;;;;;5022494;28;20255;-60
2023/01/12 05:14:12;;;;;;;6.53;1.67;;;9.10;99.90;;;;;;5018826;28;20234;-60
2023/01/12 05:16:39;;;;;;;5.90;1.17;;;9.10;99.90;;;;;;5021790;28;20653;-61
2023/01/12 05:19:07;;;;;;;4.20;1.37;;;9.10;99.90;;;;;;5018162;28;20218;-60
2023/01/12 05:21:34;;;;;;;6.17;0.97;;;9.10;99.90;;;;;;5017778;28;20597;-61
2023/01/12 05:24:00;;;;;;;7.63;1.27;;;9.10;99.90;;;;;;5020111;28;20266;-60
2023/01/12 05:26:27;;;;;;;4.73;1.50;;;9.10;99.90;;;;;;5021992;28;20289;-60
2023/01/12 05:28:54;;;;;;;5.03;1.17;;;9.10;99.90;;;;;;5020969;28;20785;-60
2023/01/12 05:31:21;;;;;;;6.60;1.67;;;9.10;99.90;;;;;;5021316;28;20212;-60
2023/01/12 05:33:47;;;;;;;4.10;1.10;;;9.10;99.90;;;;;;5021519;28;20692;-60
2023/01/12 05:36:16;;;;;;;1.97;0.97;;;9.10;99.90;;;;;;5021235;28;20285;-60
2023/01/12 05:38:43;;;;;;;4.60;1.20;;;9.10;99.90;;;;;;5028388;28;20239;-61
2023/01/12 05:41:11;;;;;;;4.57;0.90;;;9.10;99.90;;;;;;5022162;28;20289;-61
2023/01/12 05:43:51;;;;;;;3.73;1.07;;;9.10;99.90;;;;;;5021208;28;20213;-61
2023/01/12 05:46:23;;;;;;;3.00;1.03;;;9.10;99.90;;;;;;5028232;28;20244;-60
2023/01/12 05:48:52;;;;;;;3.50;1.00;;;9.10;99.90;;;;;;5024906;28;20755;-61
2023/01/12 05:51:19;;;;;;;1.83;0.73;;;9.10;99.90;;;;;;5041485;28;20578;-61
2023/01/12 05:53:46;;;;;;;3.67;1.30;;;9.10;99.90;;;;;;5041358;28;20207;-60
2023/01/12 05:56:19;;;;;;;5.93;1.33;;;9.10;99.90;;;;;;5041893;28;20295;-61
2023/01/12 05:58:57;;;;;;;3.33;1.20;;;9.10;99.90;;;;;;5041275;28;20207;-61
2023/01/12 06:01:25;;;;;;;4.60;1.27;;;9.10;99.90;;;;;;5021096;28;20214;-61
2023/01/12 06:03:59;;;;;;;4.40;1.00;;;9.10;99.90;;;;;;5040036;28;20611;-60
2023/01/12 06:06:30;;;;;;;3.07;1.00;;;9.10;99.90;;;;;;5038065;28;20207;-61
2023/01/12 06:08:58;;;;;;;3.23;0.73;;;9.10;99.90;;;;;;5023160;28;20223;-61
2023/01/12 06:14:10;;;;;;;3.93;1.20;;;9.10;99.90;;;;;;5041160;28;20196;-60
2023/01/12 06:16:39;;;;;;;5.23;0.87;;;9.10;99.90;;;;;;5040370;28;20203;-60
2023/01/12 06:19:07;;;;;;;1.87;1.07;;;9.20;99.90;;;;;;5022277;28;20234;-60
2023/01/12 06:21:34;;;;;;;3.47;0.90;;;9.20;99.90;;;;;;5040121;28;20260;-60
2023/01/12 06:24:01;;;;;;;1.77;0.70;;;9.20;99.90;;;;;;5040620;28;20200;-60
2023/01/12 06:26:27;;;;;;;1.77;0.60;;;9.20;99.90;;;;;;5034997;28;20354;-61
2023/01/12 06:28:54;;;;;;;0.67;0.63;;;9.30;99.90;;;;;;5019447;28;20215;-60
2023/01/12 06:31:21;;;;;;;2.83;0.97;;;9.30;99.90;;;;;;5019946;28;20558;-61
2023/01/12 06:33:48;;;;;;;1.90;0.53;;;9.30;99.90;;;;;;5041001;28;20210;-60
2023/01/12 06:36:14;;;;;;;0.87;0.50;;;9.40;99.90;;;;;;5023787;28;20210;-60
2023/01/12 06:38:42;;;;;;;2.00;0.70;;;9.40;99.90;;;;;;5040582;28;20230;-61
2023/01/12 06:42:27;;;;;;;2.50;0.83;;;9.40;99.90;;;;;;5021291;28;20211;-61
2023/01/12 06:43:58;;;;;;;3.87;0.97;;;9.40;99.90;;;;;;5038610;28;20231;-60
2023/01/12 06:46:26;;;;;;;6.03;1.57;;;9.40;99.90;;;;;;5035029;28;20642;-60
2023/01/12 06:48:59;;;;;;;4.83;0.87;;;9.40;99.90;;;;;;5033486;28;20250;-60
2023/01/12 06:51:26;;;;;;;3.07;0.80;;;9.40;99.90;;;;;;5034464;28;20234;-61
2023/01/12 06:53:53;;;;;;;3.87;1.07;;;9.40;99.90;;;;;;5022243;28;20205;-60
2023/01/12 06:56:20;;;;;;;3.67;1.00;;;9.40;99.90;;;;;;4661983;28;9999703;-61
2023/01/12 06:58:47;;;;;;;2.87;0.60;;;9.50;99.90;;;;;;5018514;28;20885;-61
2023/01/12 07:01:15;;;;;;;6.33;1.00;;;9.50;99.90;;;;;;5006725;28;20345;-61
2023/01/12 07:03:43;;;;;;;2.40;1.00;;;9.50;99.90;;;;;;5031036;28;20293;-61
2023/01/12 07:06:09;;;;;;;1.37;0.90;;;9.50;99.90;;;;;;5031257;28;20607;-61
2023/01/12 07:08:36;;;;;;;3.80;1.00;;;9.60;99.90;;;;;;5030114;28;20307;-64
2023/01/12 07:11:06;;;;;;;2.53;0.80;;;9.60;99.90;;;;;;5032182;28;20292;-60
2023/01/12 07:13:34;;;;;;;2.60;1.03;;;9.60;99.90;;;;;;5028028;28;20265;-60
2023/01/12 07:16:01;;;;;;;2.73;0.60;;;9.60;99.90;;;;;;5009293;28;20730;-60
2023/01/12 07:18:28;;;;;;;3.00;1.00;;;9.60;99.90;;;;;;5014439;28;20261;-60
2023/01/12 07:20:55;;;;;;;2.20;0.80;;;9.60;99.90;;;;;;5032856;28;20295;-61
2023/01/12 07:23:22;;;;;;;1.23;0.80;;;9.60;99.90;;;;;;5032089;28;20199;-62
2023/01/12 07:25:49;;;;;;;3.03;1.20;;;9.60;99.90;;;;;;5034524;28;20204;-62
2023/01/12 07:28:16;;;;;;;3.23;1.07;;;9.60;99.90;;;;;;5014722;28;20715;-62
2023/01/12 07:30:42;;;;;;;1.00;0.80;;;9.70;99.90;;;;;;5029770;28;20705;-61
2023/01/12 07:33:11;;;;;;;1.53;1.00;;;9.60;99.90;;;;;;5026010;28;20196;-61
2023/01/12 07:35:39;;;;;;;3.70;1.00;;;9.70;99.90;;;;;;5014627;28;20234;-60
2023/01/12 07:38:06;;;;;;;2.07;0.90;;;9.60;99.90;;;;;;5029926;28;20220;-61
2023/01/12 07:40:33;;;;;;;4.53;1.00;;;9.60;99.90;;;;;;5016112;28;20290;-61
2023/01/12 07:43:03;;;;;;;1.67;0.90;;;9.70;99.90;;;;;;5014053;28;20212;-61
2023/01/12 07:45:30;;;;;;;2.33;0.97;;;9.60;99.90;;;;;;5033079;28;21070;-61
2023/01/12 07:47:57;;;;;;;2.13;1.00;;;9.70;99.90;;;;;;5031780;28;20273;-61
2023/01/12 07:50:26;;;;;;;2.20;1.00;;;9.70;99.90;;;;;;5013121;28;20312;-61
2023/01/12 07:52:53;;;;;;;1.80;0.90;;;9.70;99.90;;;;;;5031523;28;20236;-61
2023/01/12 07:55:20;;;;;;;2.13;0.90;;;9.70;99.90;;;;;;5034090;28;20215;-61
2023/01/12 07:57:59;;;;;;;2.30;1.10;;;9.70;99.90;;;;;;5015196;28;20203;-61
2023/01/12 08:00:26;;;;;;;3.20;1.00;;;9.70;99.90;;;;;;5033360;28;20211;-61
2023/01/12 08:02:55;;;;;;;2.57;1.17;;;9.70;99.90;;;;;;5029376;28;20234;-61
2023/01/12 08:05:22;;;;;;;4.50;1.00;;;9.70;99.90;;;;;;5005684;28;20206;-62
2023/01/12 08:09:45;;;;;;;2.77;1.53;;;9.70;99.90;;;;;;5040638;28;21218;-61
2023/01/12 08:12:12;;;;;;;1.67;1.20;;;9.80;99.90;;;;;;5037276;28;20320;-61
2023/01/12 08:14:40;;;;;;;1.40;1.30;;;9.80;99.90;;;;;;5042797;28;20477;-61
2023/01/12 08:17:17;;;;;;;3.10;1.50;;;9.80;99.90;;;;;;5044804;28;20680;-60
2023/01/12 08:20:01;;;;;;;2.40;1.10;;;9.80;99.90;;;;;;5047841;28;20305;-61
2023/01/12 08:22:33;;;;;;;2.73;1.03;;;9.80;99.90;;;;;;5044579;28;20756;-61
2023/01/12 08:25:09;;;;;;;1.67;1.00;;;9.90;99.90;;;;;;5046171;28;20213;-60
2023/01/12 08:27:39;;;;;;;2.17;0.97;;;9.90;99.90;;;;;;5036448;28;20215;-61
2023/01/12 08:30:07;;;;;;;3.30;0.80;;;9.90;99.90;;;;;;5037675;28;20231;-61
2023/01/12 08:32:35;;;;;;;1.50;1.30;;;10.00;99.90;;;;;;5041122;28;20215;-60
2023/01/12 08:35:03;;;;;;;3.87;1.23;;;10.00;99.90;;;;;;5040977;28;20294;-61
2023/01/12 08:37:33;;;;;;;3.50;1.50;;;10.10;99.90;;;;;;5036732;28;20203;-61
2023/01/12 08:40:00;;;;;;;2.80;1.20;;;10.10;99.90;;;;;;5037929;28;20204;-61
2023/01/12 08:42:27;;;;;;;2.57;1.00;;;10.10;99.90;;;;;;5040801;28;20208;-61
2023/01/12 08:44:57;;;;;;;1.53;1.00;;;10.10;99.90;;;;;;5043653;28;20203;-61
2023/01/12 08:47:26;;;;;;;2.07;1.30;;;10.10;99.90;;;;;;5037671;28;20299;-60
2023/01/12 08:49:53;;;;;;;1.53;0.90;;;10.10;99.90;;;;;;5039011;28;20236;-61
2023/01/12 08:52:20;;;;;;;2.57;1.20;;;10.20;99.90;;;;;;5041942;28;20232;-60
2023/01/12 08:54:48;;;;;;;1.37;0.97;;;10.20;99.90;;;;;;5041690;28;20781;-60
2023/01/12 08:57:15;;;;;;;2.83;1.43;;;10.20;99.90;;;;;;5023164;28;20290;-61
2023/01/12 08:59:43;;;;;;;1.33;0.83;;;10.20;99.90;;;;;;5037648;28;21157;-61
2023/01/12 09:02:11;;;;;;;1.40;0.80;;;10.20;99.90;;;;;;5039007;28;20632;-60
2023/01/12 09:04:39;;;;;;;2.20;1.00;;;10.20;99.90;;;;;;5039657;28;20571;-60
2023/01/12 09:07:10;;;;;;;1.63;1.10;;;10.20;99.90;;;;;;5045976;28;20274;-61
2023/01/12 09:09:37;;;;;;;2.37;1.10;;;10.30;99.90;;;;;;5043345;28;20236;-61
2023/01/12 09:12:05;;;;;;;1.50;1.00;;;10.20;99.90;;;;;;5029675;28;20784;-60
2023/01/12 09:14:37;;;;;;;1.63;0.93;;;10.30;99.90;;;;;;5037149;28;20203;-60
2023/01/12 09:17:05;;;;;;;1.90;1.10;;;10.20;99.90;;;;;;5037511;28;20263;-61
2023/01/12 09:19:32;;;;;;;1.50;1.20;;;10.30;99.90;;;;;;5036713;28;20215;-60
2023/01/12 09:21:59;;;;;;;2.17;1.00;;;10.30;99.90;;;;;;5027278;28;20207;-60
2023/01/12 09:24:26;;;;;;;1.07;0.90;;;10.30;99.90;;;;;;5024870;28;20207;-60
2023/01/12 09:26:53;;;;;;;2.17;1.43;;;10.30;99.90;;;;;;5019753;28;20221;-61
2023/01/12 09:29:20;;;;;;;0.83;0.77;;;10.30;99.90;;;;;;5025423;28;20285;-65
2023/01/12 09:31:47;;;;;;;3.50;1.20;;;10.30;99.90;;;;;;5028728;28;20222;-66
2023/01/12 09:34:14;;;;;;;3.37;1.07;;;10.30;99.90;;;;;;5032014;28;21296;-64
2023/01/12 09:36:41;;;;;;;2.03;1.10;;;10.30;99.90;;;;;;5017455;28;20600;-66
2023/01/12 09:39:11;;;;;;;1.10;0.97;;;10.30;99.90;;;;;;5023613;28;21128;-66
2023/01/12 09:47:29;;;;;;;1.47;0.87;;;10.30;99.90;;;;;;5028830;28;21033;-64
2023/01/12 09:50:02;;;;;;;1.33;0.87;;;10.30;99.90;;;;;;5027761;28;20222;-67
2023/01/12 09:52:47;;;;;;;1.57;0.97;;;10.30;99.90;;;;;;5030731;28;20201;-64
2023/01/12 09:55:22;;;;;;;1.27;1.17;;;10.30;99.90;;;;;;5022535;28;20258;-65
2023/01/12 09:58:18;;;;;;;2.27;1.50;;;10.30;99.90;;;;;;5025199;28;20676;-65
2023/01/12 10:00:56;;;;;;;1.20;1.10;;;10.30;99.90;;;;;;5021481;28;20207;-65
2023/01/12 10:03:34;;;;;;;1.70;1.20;;;10.30;99.90;;;;;;5022854;28;20286;-65
2023/01/12 10:06:01;;;;;;;1.07;0.93;;;10.30;99.90;;;;;;5023876;28;20260;-65
2023/01/12 10:08:41;;;;;;;1.10;1.00;;;10.30;99.90;;;;;;5023596;28;20330;-64
2023/01/12 10:11:17;;;;;;;1.40;0.90;;;10.30;99.90;;;;;;5025562;28;20225;-65
2023/01/12 10:13:59;;;;;;;0.57;0.57;;;10.40;99.90;;;;;;5012720;28;20206;-64
2023/01/12 10:16:44;;;;;;;1.00;0.70;;;10.40;99.90;;;;;;5033244;28;20561;-65
2023/01/12 10:19:31;;;;;;;1.07;0.80;;;10.40;99.90;;;;;;5027668;28;20291;-65
2023/01/12 10:22:02;;;;;;;0.87;0.70;;;10.40;99.90;;;;;;5028731;28;20312;-65
2023/01/12 10:24:29;;;;;;;1.00;0.90;;;10.40;99.90;;;;;;5024009;28;20986;-65
2023/01/12 10:27:01;;;;;;;2.43;1.10;;;10.40;99.90;;;;;;5021746;28;20938;-65
2023/01/12 10:29:30;;;;;;;3.23;0.80;;;10.50;99.90;;;;;;5023180;28;20338;-64
2023/01/12 10:31:57;;;;;;;1.77;1.30;;;10.40;99.90;;;;;;5022186;28;20208;-64
2023/01/12 10:34:24;;;;;;;1.20;0.97;;;10.40;99.90;;;;;;5026492;28;20196;-64
2023/01/12 10:36:57;;;;;;;1.17;1.03;;;10.50;99.90;;;;;;5018796;28;20211;-66
2023/01/12 10:39:34;;;;;;;3.00;1.10;;;10.50;99.90;;;;;;5022537;28;20232;-64
2023/01/12 10:45:21;;;;;;;1.10;1.00;;;10.50;99.90;;;;;;5024529;28;20723;-65
2023/01/12 10:47:52;;;;;;;1.37;1.27;;;10.50;99.90;;;;;;5031126;28;20238;-64
2023/01/12 10:50:26;;;;;;;1.20;0.90;;;10.50;99.90;;;;;;5011802;28;20224;-65
2023/01/12 10:53:01;;;;;;;2.97;1.13;;;10.50;99.90;;;;;;5026189;28;20282;-66
2023/01/12 10:55:31;;;;;;;1.23;1.00;;;10.50;99.90;;;;;;5021122;28;20239;-66
2023/01/12 10:57:58;;;;;;;1.73;0.73;;;10.50;99.90;;;;;;5028703;28;20207;-64
2023/01/12 11:00:28;;;;;;;1.20;0.97;;;10.50;99.90;;;;;;5019157;28;20211;-65
2023/01/12 11:02:55;;;;;;;1.67;0.80;;;10.60;99.90;;;;;;5026658;28;20208;-65
2023/01/12 11:05:37;;;;;;;1.37;0.83;;;10.60;99.90;;;;;;5027426;28;20633;-64
2023/01/12 11:08:21;;;;;;;2.00;1.00;;;10.60;99.90;;;;;;5026421;28;20359;-67
2023/01/12 11:10:48;;;;;;;1.83;0.60;;;10.60;99.90;;;;;;5014801;28;20227;-65
2023/01/12 11:13:35;;;;;;;1.10;0.83;;;10.60;99.90;;;;;;5023653;28;20273;-64
2023/01/12 11:16:23;;;;;;;0.87;0.80;;;10.60;99.90;;;;;;5029293;28;20209;-64
2023/01/12 11:19:09;;;;;;;1.73;0.80;;;10.60;99.90;;;;;;5029227;28;20216;-65
2023/01/12 11:21:40;;;;;;;0.63;0.57;;;10.70;99.90;;;;;;5021751;28;20683;-65
2023/01/12 11:24:18;;;;;;;1.70;0.80;;;10.70;99.90;;;;;;5025307;28;20207;-65
2023/01/12 11:27:09;;;;;;;0.83;0.80;;;10.70;99.90;;;;;;5018998;28;20683;-65
2023/01/12 11:29:42;;;;;;;1.50;0.83;;;10.70;99.90;;;;;;5020960;28;20223;-64
2023/01/12 11:32:20;;;;;;;1.30;1.00;;;10.70;99.90;;;;;;5025629;28;20239;-65
2023/01/12 11:34:55;;;;;;;1.33;0.80;;;10.70;99.90;;;;;;5027517;28;20674;-64
2023/01/12 11:37:22;;;;;;;2.90;1.10;;;10.70;99.90;;;;;;5025806;28;20199;-64
2023/01/12 11:40:07;;;;;;;0.90;0.90;;;10.70;99.90;;;;;;5016533;28;20209;-65
2023/01/12 11:45:36;;;;;;;2.63;1.00;;;10.70;99.90;;;;;;5016565;28;20313;-65
2023/01/12 11:48:25;;;;;;;1.27;1.00;;;10.70;99.90;;;;;;5015403;28;20338;-64
2023/01/12 11:50:52;;;;;;;1.67;0.70;;;10.70;99.90;;;;;;5022299;28;20195;-64
2023/01/12 11:53:22;;;;;;;1.20;0.93;;;10.70;99.90;;;;;;5019465;28;20211;-64
2023/01/12 11:56:13;;;;;;;1.57;1.40;;;10.70;99.90;;;;;;5028212;28;20288;-64
2023/01/12 11:58:56;;;;;;;1.97;0.90;;;10.70;99.90;;;;;;5030815;28;20207;-65
2023/01/12 12:01:52;;;;;;;1.20;0.93;;;10.70;99.90;;;;;;5026266;28;20208;-64
2023/01/12 12:04:51;;;;;;;1.23;1.07;;;10.70;99.90;;;;;;5019509;28;20256;-65
2023/01/12 12:07:53;;;;;;;1.10;0.80;;;10.80;99.90;;;;;;5016882;28;20204;-65
2023/01/12 12:10:53;;;;;;;1.27;0.93;;;10.80;99.90;;;;;;5019715;28;20239;-65
2023/01/12 12:13:29;;;;;;;1.50;1.13;;;10.70;99.90;;;;;;5016519;28;20294;-65
2023/01/12 12:16:23;;;;;;;1.53;1.13;;;10.70;99.90;;;;;;5023096;28;20657;-65
2023/01/12 12:19:12;;;;;;;1.10;1.00;;;10.70;99.90;;;;;;5017319;28;20720;-65
2023/01/12 12:21:57;;;;;;;1.40;1.00;;;10.70;99.90;;;;;;5019605;28;20238;-64
2023/01/12 12:24:49;;;;;;;1.60;1.50;;;10.70;99.90;;;;;;5017169;28;22095;-66
2023/01/12 12:27:32;;;;;;;2.67;1.40;;;10.70;99.90;;;;;;5015112;28;20211;-65
2023/01/12 12:30:20;;;;;;;3.17;1.03;;;10.70;99.90;;;;;;5017054;28;23353;-63
2023/01/12 12:33:23;;;;;;;1.30;0.90;;;10.70;99.90;;;;;;5023028;28;21195;-63
2023/01/12 12:35:49;;;;;;;1.00;0.90;;;10.70;99.90;;;;;;5022249;28;20649;-63
2023/01/12 12:38:22;;;;;;;1.23;0.90;;;10.70;99.90;;;;;;5020661;28;20296;-64
2023/01/12 12:47:47;;;;;;;1.10;1.00;;;10.70;99.90;;;;;;5021613;28;20640;-64
2023/01/12 12:50:33;;;;;;;1.47;1.00;;;10.70;99.90;;;;;;5017418;28;20220;-64
2023/01/12 12:53:23;;;;;;;2.13;1.10;;;10.70;99.90;;;;;;5019661;28;20958;-62
2023/01/12 12:55:51;;;;;;;1.23;1.13;;;10.70;99.90;;;;;;5020419;28;20216;-64
2023/01/12 12:58:21;;;;;;;1.30;0.90;;;10.70;99.90;;;;;;5023159;28;20651;-62
2023/01/12 13:00:53;;;;;;;3.50;1.37;;;10.60;99.90;;;;;;5022430;28;20300;-63
2023/01/12 13:03:38;;;;;;;0.80;0.80;;;10.60;99.90;;;;;;5027674;28;20222;-63
2023/01/12 13:06:18;;;;;;;0.60;0.60;;;10.60;99.90;;;;;;5026641;28;20215;-63
2023/01/12 13:08:47;;;;;;;0.70;0.70;;;10.60;99.90;;;;;;5019071;28;20352;-65
2023/01/12 13:11:14;;;;;;;0.97;0.90;;;10.60;99.90;;;;;;5020931;28;20255;-62
2023/01/12 13:14:03;;;;;;;0.60;0.50;;;10.60;99.90;;;;;;5014946;28;20999;-63
2023/01/12 13:16:48;;;;;;;1.47;0.63;;;10.60;99.90;;;;;;5017671;28;20203;-63
2023/01/12 13:19:38;;;;;;;2.20;0.73;;;10.60;99.90;;;;;;5023826;28;20565;-63
2023/01/12 13:22:27;;;;;;;0.87;0.50;;;10.60;99.90;;;;;;5024513;28;20941;-67
2023/01/12 13:24:56;;;;;;;0.70;0.70;;;10.60;99.90;;;;;;5023096;28;20205;-62
2023/01/12 13:28:00;;;;;;;0.40;0.40;;;10.70;99.90;;;;;;5018915;28;20277;-63
2023/01/12 13:30:30;;;;;;;0.60;0.50;;;10.60;99.90;;;;;;5020325;28;20227;-62
2023/01/12 13:33:14;;;;;;;0.93;0.53;;;10.60;99.90;;;;;;5021683;28;20204;-65
2023/01/12 13:35:45;;;;;;;0.70;0.70;;;10.60;99.90;;;;;;5023141;28;20682;-64
2023/01/12 13:38:38;;;;;;;1.47;0.67;;;10.60;99.90;;;;;;5022230;28;20295;-63
2023/01/12 13:41:14;;;;;;;0.60;0.60;;;10.70;99.90;;;;;;5022763;28;20613;-63
2023/01/12 13:43:46;;;;;;;0.70;0.70;;;10.60;99.90;;;;;;5018037;28;20940;-64
2023/01/12 13:46:29;;;;;;;0.80;0.80;;;10.60;99.90;;;;;;5015614;28;20214;-63
2023/01/12 13:48:57;;;;;;;2.10;0.50;;;10.60;99.90;;;;;;5025630;28;20220;-63
2023/01/12 13:51:24;;;;;;;0.90;0.50;;;10.60;99.90;;;;;;5017586;28;20359;-64
2023/01/12 13:53:59;;;;;;;0.63;0.50;;;10.60;99.90;;;;;;5032543;28;20200;-64
2023/01/12 13:56:26;;;;;;;0.60;0.60;;;10.60;99.90;;;;;;5030477;28;20290;-65
2023/01/12 13:58:59;;;;;;;0.77;0.70;;;10.60;99.90;;;;;;5030849;28;20214;-63
2023/01/12 14:01:27;;;;;;;0.80;0.70;;;10.60;99.90;;;;;;5031121;28;21001;-64